sensor_id;sensor_type;location;lat;lon;timestamp;P1;durP1;ratioP1;P2;durP2;ratioP2
48853;SDS011;34673;52.808;17.856;2023-05-21T00:00:28;22.50;;;14.65;;
48853;SDS011;34673;52.808;17.856;2023-05-21T00:02:55;20.42;;;13.40;;
48853;SDS011;34673;52.808;17.856;2023-05-21T00:05:25;18.85;;;13.38;;
48853;SDS011;34673;52.808;17.856;2023-05-21T00:07:52;21.92;;;14.27;;
48853;SDS011;34673;52.808;17.856;2023-05-21T00:10:20;24.58;;;14.20;;
48853;SDS011;34673;52.808;17.856;2023-05-21T00:12:48;22.33;;;14.70;;
48853;SDS011;34673;52.808;17.856;2023-05-21T00:15:15;19.42;;;13.80;;
48853;SDS011;34673;52.808;17.856;2023-05-21T00:17:42;22.45;;;14.77;;
48853;SDS011;34673;52.808;17.856;2023-05-21T00:20:10;23.02;;;15.02;;
48853;SDS011;34673;52.808;17.856;2023-05-21T00:22:38;20.88;;;13.65;;
48853;SDS011;34673;52.808;17.856;2023-05-21T00:25:08;21.55;;;14.07;;
48853;SDS011;34673;52.808;17.856;2023-05-21T00:27:36;24.58;;;15.27;;
48853;SDS011;34673;52.808;17.856;2023-05-21T00:30:04;25.02;;;14.48;;
48853;SDS011;34673;52.808;17.856;2023-05-21T00:32:34;19.48;;;13.93;;
48853;SDS011;34673;52.808;17.856;2023-05-21T00:35:02;22.10;;;14.65;;
48853;SDS011;34673;52.808;17.856;2023-05-21T00:37:29;19.80;;;14.05;;
48853;SDS011;34673;52.808;17.856;2023-05-21T00:40:00;22.17;;;14.43;;
48853;SDS011;34673;52.808;17.856;2023-05-21T00:42:27;21.65;;;14.38;;
48853;SDS011;34673;52.808;17.856;2023-05-21T00:44:56;18.83;;;13.52;;
48853;SDS011;34673;52.808;17.856;2023-05-21T00:47:24;19.55;;;14.45;;
48853;SDS011;34673;52.808;17.856;2023-05-21T00:49:55;20.35;;;13.65;;
48853;SDS011;34673;52.808;17.856;2023-05-21T00:52:22;19.25;;;14.10;;
48853;SDS011;34673;52.808;17.856;2023-05-21T00:54:52;22.05;;;14.80;;
48853;SDS011;34673;52.808;17.856;2023-05-21T00:57:21;21.15;;;14.25;;
48853;SDS011;34673;52.808;17.856;2023-05-21T00:59:51;25.83;;;15.48;;
48853;SDS011;34673;52.808;17.856;2023-05-21T01:02:19;20.02;;;13.25;;
48853;SDS011;34673;52.808;17.856;2023-05-21T01:04:53;21.00;;;14.18;;
48853;SDS011;34673;52.808;17.856;2023-05-21T01:07:20;21.48;;;15.82;;
48853;SDS011;34673;52.808;17.856;2023-05-21T01:09:48;20.08;;;14.10;;
48853;SDS011;34673;52.808;17.856;2023-05-21T01:12:15;21.17;;;15.18;;
48853;SDS011;34673;52.808;17.856;2023-05-21T01:14:44;26.83;;;16.25;;
48853;SDS011;34673;52.808;17.856;2023-05-21T01:17:11;19.58;;;15.25;;
48853;SDS011;34673;52.808;17.856;2023-05-21T01:19:40;22.10;;;16.42;;
48853;SDS011;34673;52.808;17.856;2023-05-21T01:22:10;20.42;;;14.88;;
48853;SDS011;34673;52.808;17.856;2023-05-21T01:24:39;20.95;;;15.30;;
48853;SDS011;34673;52.808;17.856;2023-05-21T01:27:07;21.35;;;14.80;;
48853;SDS011;34673;52.808;17.856;2023-05-21T01:29:36;20.23;;;15.35;;
48853;SDS011;34673;52.808;17.856;2023-05-21T01:34:47;21.38;;;14.07;;
48853;SDS011;34673;52.808;17.856;2023-05-21T01:37:25;22.25;;;14.38;;
48853;SDS011;34673;52.808;17.856;2023-05-21T01:40:00;21.75;;;14.73;;
48853;SDS011;34673;52.808;17.856;2023-05-21T01:42:36;21.05;;;14.40;;
48853;SDS011;34673;52.808;17.856;2023-05-21T01:45:07;19.80;;;14.30;;
48853;SDS011;34673;52.808;17.856;2023-05-21T01:47:36;19.50;;;13.90;;
48853;SDS011;34673;52.808;17.856;2023-05-21T01:50:04;21.63;;;14.02;;
48853;SDS011;34673;52.808;17.856;2023-05-21T01:52:31;20.77;;;14.13;;
48853;SDS011;34673;52.808;17.856;2023-05-21T01:54:58;26.52;;;14.98;;
48853;SDS011;34673;52.808;17.856;2023-05-21T01:57:26;21.27;;;13.98;;
48853;SDS011;34673;52.808;17.856;2023-05-21T01:59:53;17.15;;;13.02;;
48853;SDS011;34673;52.808;17.856;2023-05-21T02:02:23;27.17;;;14.88;;
48853;SDS011;34673;52.808;17.856;2023-05-21T02:04:51;20.02;;;14.27;;
48853;SDS011;34673;52.808;17.856;2023-05-21T02:07:18;22.15;;;14.77;;
48853;SDS011;34673;52.808;17.856;2023-05-21T02:09:45;22.17;;;14.50;;
48853;SDS011;34673;52.808;17.856;2023-05-21T02:12:12;18.20;;;13.57;;
48853;SDS011;34673;52.808;17.856;2023-05-21T02:14:39;23.58;;;14.70;;
48853;SDS011;34673;52.808;17.856;2023-05-21T02:17:07;20.77;;;14.20;;
48853;SDS011;34673;52.808;17.856;2023-05-21T02:19:34;22.10;;;14.43;;
48853;SDS011;34673;52.808;17.856;2023-05-21T02:22:01;20.42;;;14.07;;
48853;SDS011;34673;52.808;17.856;2023-05-21T02:24:29;20.77;;;14.80;;
48853;SDS011;34673;52.808;17.856;2023-05-21T02:26:56;21.70;;;14.88;;
48853;SDS011;34673;52.808;17.856;2023-05-21T02:29:24;26.77;;;14.95;;
48853;SDS011;34673;52.808;17.856;2023-05-21T02:31:51;23.38;;;14.35;;
48853;SDS011;34673;52.808;17.856;2023-05-21T02:34:18;22.17;;;15.93;;
48853;SDS011;34673;52.808;17.856;2023-05-21T02:36:46;18.98;;;14.05;;
48853;SDS011;34673;52.808;17.856;2023-05-21T02:39:20;19.38;;;14.32;;
48853;SDS011;34673;52.808;17.856;2023-05-21T02:41:48;25.52;;;15.02;;
48853;SDS011;34673;52.808;17.856;2023-05-21T02:44:15;22.40;;;14.20;;
48853;SDS011;34673;52.808;17.856;2023-05-21T02:46:44;21.20;;;13.60;;
48853;SDS011;34673;52.808;17.856;2023-05-21T02:49:12;21.73;;;13.00;;
48853;SDS011;34673;52.808;17.856;2023-05-21T02:51:41;20.85;;;13.90;;
48853;SDS011;34673;52.808;17.856;2023-05-21T02:54:08;17.60;;;13.20;;
48853;SDS011;34673;52.808;17.856;2023-05-21T02:56:36;19.80;;;13.70;;
48853;SDS011;34673;52.808;17.856;2023-05-21T02:59:03;21.88;;;13.75;;
48853;SDS011;34673;52.808;17.856;2023-05-21T03:01:30;22.17;;;14.20;;
48853;SDS011;34673;52.808;17.856;2023-05-21T03:03:58;19.20;;;12.85;;
48853;SDS011;34673;52.808;17.856;2023-05-21T03:06:25;21.27;;;12.77;;
48853;SDS011;34673;52.808;17.856;2023-05-21T03:08:52;19.38;;;12.95;;
48853;SDS011;34673;52.808;17.856;2023-05-21T03:11:19;19.35;;;13.30;;
48853;SDS011;34673;52.808;17.856;2023-05-21T03:13:48;17.48;;;12.45;;
48853;SDS011;34673;52.808;17.856;2023-05-21T03:16:15;19.85;;;12.52;;
48853;SDS011;34673;52.808;17.856;2023-05-21T03:18:43;20.10;;;12.63;;
48853;SDS011;34673;52.808;17.856;2023-05-21T03:21:12;19.27;;;13.45;;
48853;SDS011;34673;52.808;17.856;2023-05-21T03:23:41;22.33;;;13.55;;
48853;SDS011;34673;52.808;17.856;2023-05-21T03:26:08;23.27;;;13.32;;
48853;SDS011;34673;52.808;17.856;2023-05-21T03:28:35;19.85;;;12.65;;
48853;SDS011;34673;52.808;17.856;2023-05-21T03:31:03;21.25;;;13.18;;
48853;SDS011;34673;52.808;17.856;2023-05-21T03:33:34;22.27;;;12.60;;
48853;SDS011;34673;52.808;17.856;2023-05-21T03:36:13;22.13;;;13.23;;
48853;SDS011;34673;52.808;17.856;2023-05-21T03:38:41;19.73;;;13.38;;
48853;SDS011;34673;52.808;17.856;2023-05-21T03:41:09;19.83;;;12.45;;
48853;SDS011;34673;52.808;17.856;2023-05-21T03:43:38;17.23;;;12.98;;
48853;SDS011;34673;52.808;17.856;2023-05-21T03:46:05;18.58;;;12.55;;
48853;SDS011;34673;52.808;17.856;2023-05-21T03:48:51;17.38;;;12.30;;
48853;SDS011;34673;52.808;17.856;2023-05-21T03:51:21;17.98;;;12.25;;
48853;SDS011;34673;52.808;17.856;2023-05-21T03:53:49;16.80;;;11.77;;
48853;SDS011;34673;52.808;17.856;2023-05-21T03:56:17;17.52;;;12.07;;
48853;SDS011;34673;52.808;17.856;2023-05-21T03:58:44;17.10;;;11.65;;
48853;SDS011;34673;52.808;17.856;2023-05-21T04:01:12;16.58;;;11.85;;
48853;SDS011;34673;52.808;17.856;2023-05-21T04:03:40;17.15;;;11.93;;
48853;SDS011;34673;52.808;17.856;2023-05-21T04:06:08;20.00;;;11.55;;
48853;SDS011;34673;52.808;17.856;2023-05-21T04:08:37;17.63;;;11.38;;
48853;SDS011;34673;52.808;17.856;2023-05-21T04:11:05;17.45;;;11.70;;
48853;SDS011;34673;52.808;17.856;2023-05-21T04:13:33;17.17;;;11.60;;
48853;SDS011;34673;52.808;17.856;2023-05-21T04:16:02;19.25;;;11.65;;
48853;SDS011;34673;52.808;17.856;2023-05-21T04:18:29;16.40;;;11.25;;
48853;SDS011;34673;52.808;17.856;2023-05-21T04:20:57;16.25;;;10.85;;
48853;SDS011;34673;52.808;17.856;2023-05-21T04:23:26;17.50;;;11.45;;
48853;SDS011;34673;52.808;17.856;2023-05-21T04:25:55;14.63;;;10.93;;
48853;SDS011;34673;52.808;17.856;2023-05-21T04:28:22;17.83;;;11.50;;
48853;SDS011;34673;52.808;17.856;2023-05-21T04:30:49;16.27;;;11.07;;
48853;SDS011;34673;52.808;17.856;2023-05-21T04:33:17;17.05;;;10.93;;
48853;SDS011;34673;52.808;17.856;2023-05-21T04:35:45;16.23;;;10.15;;
48853;SDS011;34673;52.808;17.856;2023-05-21T04:38:16;17.58;;;10.98;;
48853;SDS011;34673;52.808;17.856;2023-05-21T04:40:48;14.68;;;10.27;;
48853;SDS011;34673;52.808;17.856;2023-05-21T04:43:18;15.13;;;10.45;;
48853;SDS011;34673;52.808;17.856;2023-05-21T04:45:52;14.45;;;10.35;;
48853;SDS011;34673;52.808;17.856;2023-05-21T04:48:23;15.52;;;10.13;;
48853;SDS011;34673;52.808;17.856;2023-05-21T04:50:52;15.95;;;9.85;;
48853;SDS011;34673;52.808;17.856;2023-05-21T04:53:22;14.57;;;9.57;;
48853;SDS011;34673;52.808;17.856;2023-05-21T04:55:52;15.60;;;10.20;;
48853;SDS011;34673;52.808;17.856;2023-05-21T04:58:19;18.15;;;10.25;;
48853;SDS011;34673;52.808;17.856;2023-05-21T05:00:46;17.55;;;9.30;;
48853;SDS011;34673;52.808;17.856;2023-05-21T05:03:16;13.48;;;9.15;;
48853;SDS011;34673;52.808;17.856;2023-05-21T05:05:44;16.83;;;9.43;;
48853;SDS011;34673;52.808;17.856;2023-05-21T05:08:11;14.48;;;8.95;;
48853;SDS011;34673;52.808;17.856;2023-05-21T05:10:41;11.60;;;8.63;;
48853;SDS011;34673;52.808;17.856;2023-05-21T05:13:09;16.27;;;9.77;;
48853;SDS011;34673;52.808;17.856;2023-05-21T05:15:36;14.52;;;8.73;;
48853;SDS011;34673;52.808;17.856;2023-05-21T05:18:05;16.45;;;8.90;;
48853;SDS011;34673;52.808;17.856;2023-05-21T05:23:01;14.55;;;8.65;;
48853;SDS011;34673;52.808;17.856;2023-05-21T05:25:28;11.70;;;8.57;;
48853;SDS011;34673;52.808;17.856;2023-05-21T05:27:56;12.80;;;8.35;;
48853;SDS011;34673;52.808;17.856;2023-05-21T05:30:23;16.08;;;8.90;;
48853;SDS011;34673;52.808;17.856;2023-05-21T05:32:51;23.85;;;8.73;;
48853;SDS011;34673;52.808;17.856;2023-05-21T05:35:19;12.90;;;8.45;;
48853;SDS011;34673;52.808;17.856;2023-05-21T05:37:46;13.90;;;8.23;;
48853;SDS011;34673;52.808;17.856;2023-05-21T05:40:14;14.55;;;8.77;;
48853;SDS011;34673;52.808;17.856;2023-05-21T05:42:41;18.83;;;9.35;;
48853;SDS011;34673;52.808;17.856;2023-05-21T05:45:13;13.55;;;8.80;;
48853;SDS011;34673;52.808;17.856;2023-05-21T05:47:41;13.70;;;8.55;;
48853;SDS011;34673;52.808;17.856;2023-05-21T05:50:08;13.45;;;8.25;;
48853;SDS011;34673;52.808;17.856;2023-05-21T05:52:36;13.30;;;8.32;;
48853;SDS011;34673;52.808;17.856;2023-05-21T05:55:03;14.20;;;8.15;;
48853;SDS011;34673;52.808;17.856;2023-05-21T05:57:30;13.65;;;8.43;;
48853;SDS011;34673;52.808;17.856;2023-05-21T06:00:03;14.07;;;8.48;;
48853;SDS011;34673;52.808;17.856;2023-05-21T06:02:37;13.73;;;8.38;;
48853;SDS011;34673;52.808;17.856;2023-05-21T06:05:05;11.65;;;8.48;;
48853;SDS011;34673;52.808;17.856;2023-05-21T06:07:32;12.30;;;8.07;;
48853;SDS011;34673;52.808;17.856;2023-05-21T06:10:00;17.95;;;8.60;;
48853;SDS011;34673;52.808;17.856;2023-05-21T06:12:27;15.77;;;8.40;;
48853;SDS011;34673;52.808;17.856;2023-05-21T06:14:54;14.77;;;8.88;;
48853;SDS011;34673;52.808;17.856;2023-05-21T06:17:21;15.45;;;8.88;;
48853;SDS011;34673;52.808;17.856;2023-05-21T06:19:50;16.98;;;7.72;;
48853;SDS011;34673;52.808;17.856;2023-05-21T06:22:18;13.82;;;8.07;;
48853;SDS011;34673;52.808;17.856;2023-05-21T06:24:45;14.98;;;8.25;;
48853;SDS011;34673;52.808;17.856;2023-05-21T06:27:13;14.60;;;7.43;;
48853;SDS011;34673;52.808;17.856;2023-05-21T06:29:41;15.18;;;7.82;;
48853;SDS011;34673;52.808;17.856;2023-05-21T06:32:09;13.60;;;7.30;;
48853;SDS011;34673;52.808;17.856;2023-05-21T06:34:36;15.73;;;7.40;;
48853;SDS011;34673;52.808;17.856;2023-05-21T06:37:03;14.48;;;7.28;;
48853;SDS011;34673;52.808;17.856;2023-05-21T06:39:31;12.18;;;7.20;;
48853;SDS011;34673;52.808;17.856;2023-05-21T06:41:58;12.57;;;7.13;;
48853;SDS011;34673;52.808;17.856;2023-05-21T06:44:44;13.23;;;6.80;;
48853;SDS011;34673;52.808;17.856;2023-05-21T06:47:21;15.07;;;6.65;;
48853;SDS011;34673;52.808;17.856;2023-05-21T06:49:48;9.18;;;6.38;;
48853;SDS011;34673;52.808;17.856;2023-05-21T06:52:15;12.80;;;6.82;;
48853;SDS011;34673;52.808;17.856;2023-05-21T06:54:43;8.93;;;6.20;;
48853;SDS011;34673;52.808;17.856;2023-05-21T06:57:10;11.82;;;5.93;;
48853;SDS011;34673;52.808;17.856;2023-05-21T06:59:37;8.77;;;5.97;;
48853;SDS011;34673;52.808;17.856;2023-05-21T07:02:05;9.95;;;5.63;;
48853;SDS011;34673;52.808;17.856;2023-05-21T07:04:32;12.98;;;6.20;;
48853;SDS011;34673;52.808;17.856;2023-05-21T07:07:01;11.77;;;6.13;;
48853;SDS011;34673;52.808;17.856;2023-05-21T07:09:30;14.20;;;5.93;;
48853;SDS011;34673;52.808;17.856;2023-05-21T07:11:58;10.23;;;4.57;;
48853;SDS011;34673;52.808;17.856;2023-05-21T07:14:25;8.93;;;4.47;;
48853;SDS011;34673;52.808;17.856;2023-05-21T07:16:52;11.88;;;5.05;;
48853;SDS011;34673;52.808;17.856;2023-05-21T07:19:19;9.20;;;4.53;;
48853;SDS011;34673;52.808;17.856;2023-05-21T07:21:47;9.82;;;3.83;;
48853;SDS011;34673;52.808;17.856;2023-05-21T07:24:15;7.43;;;4.13;;
48853;SDS011;34673;52.808;17.856;2023-05-21T07:26:42;8.52;;;4.70;;
48853;SDS011;34673;52.808;17.856;2023-05-21T07:29:10;8.98;;;4.45;;
48853;SDS011;34673;52.808;17.856;2023-05-21T07:31:37;10.48;;;4.30;;
48853;SDS011;34673;52.808;17.856;2023-05-21T07:34:06;10.82;;;4.38;;
48853;SDS011;34673;52.808;17.856;2023-05-21T07:36:33;10.95;;;4.13;;
48853;SDS011;34673;52.808;17.856;2023-05-21T07:39:01;7.07;;;3.47;;
48853;SDS011;34673;52.808;17.856;2023-05-21T07:41:29;8.73;;;3.72;;
48853;SDS011;34673;52.808;17.856;2023-05-21T07:43:59;12.15;;;4.50;;
48853;SDS011;34673;52.808;17.856;2023-05-21T07:46:30;9.98;;;3.67;;
48853;SDS011;34673;52.808;17.856;2023-05-21T07:48:57;10.95;;;4.47;;
48853;SDS011;34673;52.808;17.856;2023-05-21T07:51:24;13.07;;;4.00;;
48853;SDS011;34673;52.808;17.856;2023-05-21T07:53:52;7.03;;;3.70;;
48853;SDS011;34673;52.808;17.856;2023-05-21T07:56:28;5.30;;;2.75;;
48853;SDS011;34673;52.808;17.856;2023-05-21T07:58:55;11.02;;;3.15;;
48853;SDS011;34673;52.808;17.856;2023-05-21T08:01:23;8.65;;;3.03;;
48853;SDS011;34673;52.808;17.856;2023-05-21T08:03:51;6.90;;;3.50;;
48853;SDS011;34673;52.808;17.856;2023-05-21T08:06:18;7.40;;;3.42;;
48853;SDS011;34673;52.808;17.856;2023-05-21T08:08:45;6.40;;;3.15;;
48853;SDS011;34673;52.808;17.856;2023-05-21T08:11:13;7.95;;;3.70;;
48853;SDS011;34673;52.808;17.856;2023-05-21T08:13:41;7.53;;;3.40;;
48853;SDS011;34673;52.808;17.856;2023-05-21T08:16:11;8.75;;;3.78;;
48853;SDS011;34673;52.808;17.856;2023-05-21T08:18:38;7.45;;;3.10;;
48853;SDS011;34673;52.808;17.856;2023-05-21T08:21:06;7.47;;;3.35;;
48853;SDS011;34673;52.808;17.856;2023-05-21T08:23:34;16.27;;;2.67;;
48853;SDS011;34673;52.808;17.856;2023-05-21T08:26:02;9.07;;;2.97;;
48853;SDS011;34673;52.808;17.856;2023-05-21T08:28:29;8.73;;;2.78;;
48853;SDS011;34673;52.808;17.856;2023-05-21T08:30:57;15.32;;;3.28;;
48853;SDS011;34673;52.808;17.856;2023-05-21T08:33:24;4.70;;;2.70;;
48853;SDS011;34673;52.808;17.856;2023-05-21T08:35:52;13.25;;;2.67;;
48853;SDS011;34673;52.808;17.856;2023-05-21T08:38:26;4.32;;;2.17;;
48853;SDS011;34673;52.808;17.856;2023-05-21T08:40:56;4.95;;;2.22;;
48853;SDS011;34673;52.808;17.856;2023-05-21T08:43:28;11.98;;;2.50;;
48853;SDS011;34673;52.808;17.856;2023-05-21T08:45:56;15.85;;;2.80;;
48853;SDS011;34673;52.808;17.856;2023-05-21T08:48:30;7.60;;;2.38;;
48853;SDS011;34673;52.808;17.856;2023-05-21T08:50:58;8.52;;;2.45;;
48853;SDS011;34673;52.808;17.856;2023-05-21T08:53:33;8.70;;;2.50;;
48853;SDS011;34673;52.808;17.856;2023-05-21T08:56:03;4.80;;;2.50;;
48853;SDS011;34673;52.808;17.856;2023-05-21T08:58:52;6.22;;;2.60;;
48853;SDS011;34673;52.808;17.856;2023-05-21T09:01:24;8.75;;;3.15;;
48853;SDS011;34673;52.808;17.856;2023-05-21T09:04:03;7.88;;;3.13;;
48853;SDS011;34673;52.808;17.856;2023-05-21T09:06:48;9.70;;;3.28;;
48853;SDS011;34673;52.808;17.856;2023-05-21T09:09:31;4.72;;;2.58;;
48853;SDS011;34673;52.808;17.856;2023-05-21T09:12:00;4.82;;;2.30;;
48853;SDS011;34673;52.808;17.856;2023-05-21T09:14:28;6.20;;;2.78;;
48853;SDS011;34673;52.808;17.856;2023-05-21T09:17:01;7.40;;;2.80;;
48853;SDS011;34673;52.808;17.856;2023-05-21T09:19:28;3.75;;;2.40;;
48853;SDS011;34673;52.808;17.856;2023-05-21T09:22:02;10.73;;;2.60;;
48853;SDS011;34673;52.808;17.856;2023-05-21T09:24:31;5.93;;;2.40;;
48853;SDS011;34673;52.808;17.856;2023-05-21T09:27:02;8.82;;;2.50;;
48853;SDS011;34673;52.808;17.856;2023-05-21T09:29:34;9.02;;;2.63;;
48853;SDS011;34673;52.808;17.856;2023-05-21T09:32:04;5.97;;;2.80;;
48853;SDS011;34673;52.808;17.856;2023-05-21T09:34:37;6.78;;;3.38;;
48853;SDS011;34673;52.808;17.856;2023-05-21T09:37:05;12.13;;;2.40;;
48853;SDS011;34673;52.808;17.856;2023-05-21T09:39:52;5.18;;;2.22;;
48853;SDS011;34673;52.808;17.856;2023-05-21T09:42:19;7.22;;;3.75;;
48853;SDS011;34673;52.808;17.856;2023-05-21T09:44:47;10.10;;;4.13;;
48853;SDS011;34673;52.808;17.856;2023-05-21T09:47:17;8.52;;;2.80;;
48853;SDS011;34673;52.808;17.856;2023-05-21T09:49:45;10.10;;;2.60;;
48853;SDS011;34673;52.808;17.856;2023-05-21T09:52:12;7.82;;;3.55;;
48853;SDS011;34673;52.808;17.856;2023-05-21T09:54:48;7.03;;;2.55;;
48853;SDS011;34673;52.808;17.856;2023-05-21T09:57:22;6.20;;;2.20;;
48853;SDS011;34673;52.808;17.856;2023-05-21T09:59:52;5.85;;;2.40;;
48853;SDS011;34673;52.808;17.856;2023-05-21T10:02:20;9.23;;;2.70;;
48853;SDS011;34673;52.808;17.856;2023-05-21T10:04:50;11.90;;;3.85;;
48853;SDS011;34673;52.808;17.856;2023-05-21T10:07:20;4.68;;;2.22;;
48853;SDS011;34673;52.808;17.856;2023-05-21T10:09:55;7.93;;;3.30;;
48853;SDS011;34673;52.808;17.856;2023-05-21T10:12:23;5.68;;;2.35;;
48853;SDS011;34673;52.808;17.856;2023-05-21T10:14:53;10.05;;;2.75;;
48853;SDS011;34673;52.808;17.856;2023-05-21T10:17:27;3.47;;;1.90;;
48853;SDS011;34673;52.808;17.856;2023-05-21T10:19:56;7.47;;;3.38;;
48853;SDS011;34673;52.808;17.856;2023-05-21T10:22:25;8.60;;;2.70;;
48853;SDS011;34673;52.808;17.856;2023-05-21T10:24:54;5.43;;;2.80;;
48853;SDS011;34673;52.808;17.856;2023-05-21T10:27:22;5.10;;;2.10;;
48853;SDS011;34673;52.808;17.856;2023-05-21T10:29:50;6.25;;;2.30;;
48853;SDS011;34673;52.808;17.856;2023-05-21T10:32:20;11.10;;;4.65;;
48853;SDS011;34673;52.808;17.856;2023-05-21T10:34:48;21.02;;;11.73;;
48853;SDS011;34673;52.808;17.856;2023-05-21T10:37:22;26.60;;;11.93;;
48853;SDS011;34673;52.808;17.856;2023-05-21T10:39:54;44.33;;;19.88;;
48853;SDS011;34673;52.808;17.856;2023-05-21T10:44:59;6.80;;;2.60;;
48853;SDS011;34673;52.808;17.856;2023-05-21T10:47:39;4.75;;;2.40;;
48853;SDS011;34673;52.808;17.856;2023-05-21T10:52:54;5.47;;;2.30;;
48853;SDS011;34673;52.808;17.856;2023-05-21T10:55:47;6.40;;;2.25;;
48853;SDS011;34673;52.808;17.856;2023-05-21T10:58:34;4.03;;;2.20;;
48853;SDS011;34673;52.808;17.856;2023-05-21T11:01:05;4.75;;;1.90;;
48853;SDS011;34673;52.808;17.856;2023-05-21T11:03:34;6.18;;;1.92;;
48853;SDS011;34673;52.808;17.856;2023-05-21T11:06:03;5.32;;;2.00;;
48853;SDS011;34673;52.808;17.856;2023-05-21T11:08:32;3.67;;;2.10;;
48853;SDS011;34673;52.808;17.856;2023-05-21T11:11:02;6.22;;;1.88;;
48853;SDS011;34673;52.808;17.856;2023-05-21T11:13:46;5.28;;;2.00;;
48853;SDS011;34673;52.808;17.856;2023-05-21T11:16:17;4.43;;;1.70;;
48853;SDS011;34673;52.808;17.856;2023-05-21T11:21:22;7.10;;;1.98;;
48853;SDS011;34673;52.808;17.856;2023-05-21T11:23:54;7.25;;;2.08;;
48853;SDS011;34673;52.808;17.856;2023-05-21T11:29:46;3.35;;;2.03;;
48853;SDS011;34673;52.808;17.856;2023-05-21T11:32:13;7.25;;;1.92;;
48853;SDS011;34673;52.808;17.856;2023-05-21T11:34:46;6.60;;;1.90;;
48853;SDS011;34673;52.808;17.856;2023-05-21T11:42:11;3.15;;;1.92;;
48853;SDS011;34673;52.808;17.856;2023-05-21T11:44:41;5.93;;;2.00;;
48853;SDS011;34673;52.808;17.856;2023-05-21T11:47:13;4.10;;;1.95;;
48853;SDS011;34673;52.808;17.856;2023-05-21T11:49:41;5.05;;;2.00;;
48853;SDS011;34673;52.808;17.856;2023-05-21T11:52:11;5.30;;;2.10;;
48853;SDS011;34673;52.808;17.856;2023-05-21T11:54:41;5.40;;;2.13;;
48853;SDS011;34673;52.808;17.856;2023-05-21T11:57:21;5.90;;;1.80;;
48853;SDS011;34673;52.808;17.856;2023-05-21T11:59:51;4.80;;;1.80;;
48853;SDS011;34673;52.808;17.856;2023-05-21T12:02:18;3.70;;;1.90;;
48853;SDS011;34673;52.808;17.856;2023-05-21T12:04:48;8.30;;;1.90;;
48853;SDS011;34673;52.808;17.856;2023-05-21T12:07:16;6.97;;;2.03;;
48853;SDS011;34673;52.808;17.856;2023-05-21T12:09:46;4.35;;;1.75;;
48853;SDS011;34673;52.808;17.856;2023-05-21T12:12:18;5.38;;;1.70;;
48853;SDS011;34673;52.808;17.856;2023-05-21T12:14:48;6.35;;;1.70;;
48853;SDS011;34673;52.808;17.856;2023-05-21T12:17:20;2.88;;;1.70;;
48853;SDS011;34673;52.808;17.856;2023-05-21T12:19:55;3.33;;;1.70;;
48853;SDS011;34673;52.808;17.856;2023-05-21T12:22:23;4.13;;;1.30;;
48853;SDS011;34673;52.808;17.856;2023-05-21T12:24:51;3.72;;;1.80;;
48853;SDS011;34673;52.808;17.856;2023-05-21T12:27:20;6.15;;;1.80;;
48853;SDS011;34673;52.808;17.856;2023-05-21T12:29:48;4.38;;;1.73;;
48853;SDS011;34673;52.808;17.856;2023-05-21T12:32:18;4.27;;;1.73;;
48853;SDS011;34673;52.808;17.856;2023-05-21T12:34:51;4.22;;;1.63;;
48853;SDS011;34673;52.808;17.856;2023-05-21T12:37:21;3.70;;;1.70;;
48853;SDS011;34673;52.808;17.856;2023-05-21T12:39:53;3.45;;;1.50;;
48853;SDS011;34673;52.808;17.856;2023-05-21T12:42:27;5.45;;;1.88;;
48853;SDS011;34673;52.808;17.856;2023-05-21T12:44:56;5.53;;;1.70;;
48853;SDS011;34673;52.808;17.856;2023-05-21T12:47:24;3.30;;;1.60;;
48853;SDS011;34673;52.808;17.856;2023-05-21T12:49:53;6.15;;;1.90;;
48853;SDS011;34673;52.808;17.856;2023-05-21T12:52:23;4.32;;;1.65;;
48853;SDS011;34673;52.808;17.856;2023-05-21T12:54:52;5.25;;;1.67;;
48853;SDS011;34673;52.808;17.856;2023-05-21T12:57:26;3.50;;;1.58;;
48853;SDS011;34673;52.808;17.856;2023-05-21T13:00:01;4.20;;;1.60;;
48853;SDS011;34673;52.808;17.856;2023-05-21T13:05:14;4.07;;;1.40;;
48853;SDS011;34673;52.808;17.856;2023-05-21T13:07:45;6.45;;;2.00;;
48853;SDS011;34673;52.808;17.856;2023-05-21T13:10:13;4.43;;;1.70;;
48853;SDS011;34673;52.808;17.856;2023-05-21T13:12:42;8.00;;;1.83;;
48853;SDS011;34673;52.808;17.856;2023-05-21T13:15:10;4.30;;;1.88;;
48853;SDS011;34673;52.808;17.856;2023-05-21T13:17:38;3.05;;;1.70;;
48853;SDS011;34673;52.808;17.856;2023-05-21T13:20:06;3.33;;;1.70;;
48853;SDS011;34673;52.808;17.856;2023-05-21T13:22:35;6.03;;;1.48;;
48853;SDS011;34673;52.808;17.856;2023-05-21T13:25:11;3.38;;;1.63;;
48853;SDS011;34673;52.808;17.856;2023-05-21T13:27:41;4.40;;;1.70;;
48853;SDS011;34673;52.808;17.856;2023-05-21T13:30:09;5.32;;;1.70;;
48853;SDS011;34673;52.808;17.856;2023-05-21T13:32:37;4.50;;;2.03;;
48853;SDS011;34673;52.808;17.856;2023-05-21T13:35:06;3.50;;;1.60;;
48853;SDS011;34673;52.808;17.856;2023-05-21T13:37:34;3.50;;;1.60;;
48853;SDS011;34673;52.808;17.856;2023-05-21T13:42:37;4.93;;;1.67;;
48853;SDS011;34673;52.808;17.856;2023-05-21T13:45:08;3.63;;;1.70;;
48853;SDS011;34673;52.808;17.856;2023-05-21T13:47:37;8.93;;;2.00;;
48853;SDS011;34673;52.808;17.856;2023-05-21T13:50:06;3.83;;;1.60;;
48853;SDS011;34673;52.808;17.856;2023-05-21T13:52:34;4.20;;;1.50;;
48853;SDS011;34673;52.808;17.856;2023-05-21T13:55:02;5.20;;;1.70;;
48853;SDS011;34673;52.808;17.856;2023-05-21T13:57:30;4.35;;;1.52;;
48853;SDS011;34673;52.808;17.856;2023-05-21T13:59:57;4.25;;;1.70;;
48853;SDS011;34673;52.808;17.856;2023-05-21T14:02:25;3.92;;;1.42;;
48853;SDS011;34673;52.808;17.856;2023-05-21T14:04:53;4.95;;;1.90;;
48853;SDS011;34673;52.808;17.856;2023-05-21T14:07:20;5.90;;;1.63;;
48853;SDS011;34673;52.808;17.856;2023-05-21T14:09:48;5.93;;;1.90;;
48853;SDS011;34673;52.808;17.856;2023-05-21T14:12:15;5.25;;;1.58;;
48853;SDS011;34673;52.808;17.856;2023-05-21T14:14:42;3.83;;;1.63;;
48853;SDS011;34673;52.808;17.856;2023-05-21T14:17:10;4.28;;;1.50;;
48853;SDS011;34673;52.808;17.856;2023-05-21T14:19:37;5.13;;;2.30;;
48853;SDS011;34673;52.808;17.856;2023-05-21T14:22:04;11.18;;;2.08;;
48853;SDS011;34673;52.808;17.856;2023-05-21T14:24:31;9.10;;;1.55;;
48853;SDS011;34673;52.808;17.856;2023-05-21T14:26:59;4.78;;;1.80;;
48853;SDS011;34673;52.808;17.856;2023-05-21T14:29:26;2.63;;;1.70;;
48853;SDS011;34673;52.808;17.856;2023-05-21T14:31:53;4.13;;;1.80;;
48853;SDS011;34673;52.808;17.856;2023-05-21T14:34:20;5.72;;;1.90;;
48853;SDS011;34673;52.808;17.856;2023-05-21T14:36:48;4.88;;;1.60;;
48853;SDS011;34673;52.808;17.856;2023-05-21T14:39:15;8.70;;;1.60;;
48853;SDS011;34673;52.808;17.856;2023-05-21T14:41:43;4.57;;;1.85;;
48853;SDS011;34673;52.808;17.856;2023-05-21T14:44:10;5.15;;;1.77;;
48853;SDS011;34673;52.808;17.856;2023-05-21T14:46:38;3.60;;;1.90;;
48853;SDS011;34673;52.808;17.856;2023-05-21T14:49:06;3.47;;;1.73;;
48853;SDS011;34673;52.808;17.856;2023-05-21T14:51:33;3.70;;;1.83;;
48853;SDS011;34673;52.808;17.856;2023-05-21T14:54:00;4.80;;;1.98;;
48853;SDS011;34673;52.808;17.856;2023-05-21T14:56:27;5.13;;;1.50;;
48853;SDS011;34673;52.808;17.856;2023-05-21T14:58:55;5.22;;;1.88;;
48853;SDS011;34673;52.808;17.856;2023-05-21T15:01:22;2.90;;;1.50;;